Time;durP1;ratioP1;P1;durP2;ratioP2;P2;SDS_P1;SDS_P2;PMS_P1;PMS_P2;Temp;Humidity;BMP_temperature;BMP_pressure;BME280_temperature;BME280_humidity;BME280_pressure;Samples;Min_cycle;Max_cycle;Signal;HPM_P1;HPM_P2
2022/11/21 00:02:00;;;;;;;10.33;4.37;;;-11.40;99.90;;;;;;5095308;28;20279;-78
2022/11/21 00:04:26;;;;;;;9.80;3.80;;;-12.50;99.90;;;;;;5091691;28;20181;-77
2022/11/21 00:06:52;;;;;;;13.47;4.07;;;-13.60;99.90;;;;;;5085687;28;20181;-79
2022/11/21 00:09:18;;;;;;;8.00;3.83;;;-11.90;99.90;;;;;;5083862;28;20178;-79
2022/11/21 00:11:43;;;;;;;5.93;3.30;;;-12.80;99.90;;;;;;5090657;28;20204;-74
2022/11/21 00:14:09;;;;;;;9.03;4.30;;;-12.10;99.90;;;;;;5081396;28;20251;-77
2022/11/21 00:16:35;;;;;;;11.13;4.30;;;-14.00;99.90;;;;;;5096654;28;20222;-79
2022/11/21 00:19:00;;;;;;;8.17;4.93;;;-13.20;99.90;;;;;;5097666;28;20487;-74
2022/11/21 00:21:26;;;;;;;10.03;3.73;;;-11.90;99.90;;;;;;5092470;28;20227;-78
2022/11/21 00:23:52;;;;;;;5.70;3.30;;;-12.30;99.90;;;;;;5089492;28;20245;-79
2022/11/21 00:26:18;;;;;;;12.17;3.93;;;-13.00;99.90;;;;;;5093914;28;20184;-78
2022/11/21 00:28:44;;;;;;;6.57;3.80;;;-12.20;99.90;;;;;;5084693;28;20172;-80
2022/11/21 00:31:19;;;;;;;11.77;4.60;;;-11.40;99.90;;;;;;5094626;28;20335;-80
2022/11/21 00:33:45;;;;;;;7.57;3.57;;;-13.70;99.90;;;;;;5099266;28;20416;-76
2022/11/21 00:36:10;;;;;;;15.00;4.33;;;-13.10;99.90;;;;;;5094896;28;20496;-78
2022/11/21 00:38:36;;;;;;;16.70;4.13;;;-13.10;99.90;;;;;;5099229;28;20185;-77
2022/11/21 00:41:02;;;;;;;11.90;3.67;;;-12.60;99.90;;;;;;5084935;28;20210;-78
2022/11/21 00:43:27;;;;;;;9.27;3.97;;;-12.20;99.90;;;;;;5089913;28;20478;-80
2022/11/21 00:45:53;;;;;;;15.70;3.77;;;-12.60;99.90;;;;;;5095348;28;20473;-78
2022/11/21 00:48:19;;;;;;;10.13;3.80;;;-12.00;99.90;;;;;;5098106;28;20185;-80
2022/11/21 00:50:48;;;;;;;8.40;3.90;;;-11.60;99.90;;;;;;5098752;28;20220;-78
2022/11/21 00:53:13;;;;;;;8.43;3.43;;;-11.40;99.90;;;;;;5093920;28;20649;-81
2022/11/21 00:55:40;;;;;;;7.07;3.20;;;-10.60;99.90;;;;;;5097993;28;20443;-76
2022/11/21 00:58:06;;;;;;;11.17;5.23;;;-10.70;99.90;;;;;;5086793;28;20177;-79
2022/11/21 01:00:32;;;;;;;4.93;2.87;;;-10.40;99.90;;;;;;5091580;28;20459;-77
2022/11/21 01:02:57;;;;;;;9.67;3.60;;;-10.70;99.90;;;;;;5098639;28;20550;-77
2022/11/21 01:05:23;;;;;;;6.47;3.40;;;-10.40;99.90;;;;;;5097393;28;20178;-78
2022/11/21 01:07:49;;;;;;;6.80;3.60;;;-10.80;99.90;;;;;;5094240;28;20184;-77
2022/11/21 01:10:14;;;;;;;8.77;3.10;;;-11.50;99.90;;;;;;5088317;28;20192;-81
2022/11/21 01:12:40;;;;;;;9.93;3.10;;;-11.10;99.90;;;;;;5093257;28;20259;-75
2022/11/21 01:15:07;;;;;;;8.47;4.00;;;-11.00;99.90;;;;;;5088690;28;20213;-80
2022/11/21 01:17:33;;;;;;;5.30;2.67;;;-11.70;99.90;;;;;;5086589;28;20474;-80
2022/11/21 01:19:58;;;;;;;9.17;4.03;;;-10.90;99.90;;;;;;5093729;28;20496;-80
2022/11/21 01:22:24;;;;;;;5.43;3.27;;;-10.60;99.90;;;;;;5093770;28;20199;-79
2022/11/21 01:24:50;;;;;;;10.97;3.13;;;-11.60;99.90;;;;;;5098375;28;20231;-75
2022/11/21 01:27:15;;;;;;;4.70;2.97;;;-12.10;99.90;;;;;;5094109;28;20631;-78
2022/11/21 01:29:41;;;;;;;8.13;3.27;;;-13.00;99.90;;;;;;5094133;28;20238;-79
2022/11/21 01:32:07;;;;;;;7.27;2.67;;;-12.70;99.90;;;;;;5092568;28;20200;-81
2022/11/21 01:34:33;;;;;;;14.53;4.60;;;-13.30;99.90;;;;;;5090124;28;20187;-80
2022/11/21 01:37:00;;;;;;;8.93;3.03;;;-15.10;99.90;;;;;;5091659;28;20187;-80
2022/11/21 01:39:25;;;;;;;11.03;4.30;;;-12.80;99.90;;;;;;5091671;28;20480;-78
2022/11/21 01:41:51;;;;;;;11.97;4.27;;;-12.80;99.90;;;;;;5098205;28;20462;-74
2022/11/21 01:44:26;;;;;;;6.23;2.77;;;-12.90;99.90;;;;;;5097998;28;20192;-78
2022/11/21 01:46:52;;;;;;;8.20;3.73;;;-13.70;99.90;;;;;;5096645;28;20179;-79
2022/11/21 01:49:31;;;;;;;7.50;3.80;;;-12.80;99.90;;;;;;5098103;28;20422;-79
2022/11/21 01:52:08;;;;;;;15.53;4.93;;;-12.40;99.90;;;;;;5092855;28;20511;-79
2022/11/21 01:54:46;;;;;;;11.30;3.97;;;-12.20;99.90;;;;;;5092003;28;20417;-78
2022/11/21 01:57:27;;;;;;;5.73;3.17;;;-12.50;99.90;;;;;;5083010;28;20514;-79
2022/11/21 02:00:01;;;;;;;12.40;3.87;;;-12.10;99.90;;;;;;5093148;28;20459;-79
2022/11/21 02:02:33;;;;;;;13.90;4.97;;;-11.30;99.90;;;;;;5091552;28;20552;-79
2022/11/21 02:05:01;;;;;;;5.73;3.27;;;-10.90;99.90;;;;;;5086005;28;20440;-80
2022/11/21 02:07:31;;;;;;;11.23;4.10;;;-11.00;99.90;;;;;;5097818;28;20499;-79
2022/11/21 02:09:59;;;;;;;11.07;3.50;;;-11.60;99.90;;;;;;5090967;28;20759;-80
2022/11/21 02:12:34;;;;;;;8.03;3.43;;;-11.10;99.90;;;;;;5091469;28;20632;-79
2022/11/21 02:15:00;;;;;;;6.27;3.43;;;-11.60;99.90;;;;;;5088685;28;20429;-79
2022/11/21 02:17:29;;;;;;;8.47;2.30;;;-11.60;99.90;;;;;;5089176;28;20425;-78
2022/11/21 02:20:16;;;;;;;6.70;3.47;;;-11.50;99.90;;;;;;5090978;28;20767;-80
2022/11/21 02:23:10;;;;;;;5.80;3.10;;;-12.70;99.90;;;;;;5096167;28;21024;-79
2022/11/21 02:25:38;;;;;;;5.13;2.90;;;-12.40;99.90;;;;;;5088684;28;20422;-78
2022/11/21 02:28:06;;;;;;;6.53;2.83;;;-12.60;99.90;;;;;;5096213;28;20499;-79
2022/11/21 02:30:35;;;;;;;8.53;3.60;;;-12.80;99.90;;;;;;5078559;28;20442;-80
2022/11/21 02:33:01;;;;;;;7.93;3.53;;;-12.50;99.90;;;;;;5091795;28;20437;-77
2022/11/21 02:35:28;;;;;;;5.70;2.93;;;-14.40;99.90;;;;;;5097116;28;20423;-77
2022/11/21 02:37:59;;;;;;;3.77;3.00;;;-13.40;99.90;;;;;;5109631;27;20274;-79
2022/11/21 02:40:31;;;;;;;6.17;2.60;;;-13.30;99.90;;;;;;5092582;28;20482;-79
2022/11/21 02:43:18;;;;;;;8.37;3.47;;;-12.50;99.90;;;;;;5094571;28;20496;-77
2022/11/21 02:45:45;;;;;;;6.47;2.93;;;-13.20;99.90;;;;;;5085324;28;20493;-79
2022/11/21 02:48:12;;;;;;;7.03;3.13;;;-13.80;99.90;;;;;;5092717;28;20911;-80
2022/11/21 02:50:40;;;;;;;11.77;3.90;;;-12.60;99.90;;;;;;5095574;28;20472;-79
2022/11/21 02:53:09;;;;;;;7.77;2.33;;;-9.50;99.90;;;;;;5094493;28;20495;-79
2022/11/21 02:55:35;;;;;;;6.23;2.77;;;-13.00;99.90;;;;;;5087636;28;20857;-81
2022/11/21 02:58:01;;;;;;;7.47;2.77;;;-13.80;99.90;;;;;;5091109;28;20427;-79
2022/11/21 03:00:27;;;;;;;7.00;2.07;;;-13.30;99.90;;;;;;5082405;28;20436;-80
2022/11/21 03:02:53;;;;;;;6.70;2.03;;;-13.10;99.90;;;;;;5094407;28;20640;-80
2022/11/21 03:05:19;;;;;;;5.97;2.10;;;-11.80;99.90;;;;;;5078920;28;20602;-78
2022/11/21 03:07:46;;;;;;;7.47;2.37;;;-12.20;99.90;;;;;;5093573;28;20861;-79
2022/11/21 03:10:12;;;;;;;9.03;2.37;;;-11.50;99.90;;;;;;5094327;28;20489;-75
2022/11/21 03:12:39;;;;;;;7.07;2.63;;;-11.70;99.90;;;;;;5095616;28;20469;-79
2022/11/21 03:15:06;;;;;;;7.53;3.07;;;-11.90;99.90;;;;;;5093401;28;20437;-80
2022/11/21 03:17:32;;;;;;;3.23;2.13;;;-13.00;99.90;;;;;;5091764;28;20525;-81
2022/11/21 03:19:58;;;;;;;3.23;2.13;;;-12.00;99.90;;;;;;5094672;28;20519;-79
2022/11/21 03:22:24;;;;;;;7.43;2.30;;;-11.10;99.90;;;;;;5090878;28;20208;-79
2022/11/21 03:24:50;;;;;;;6.03;2.63;;;-11.00;99.90;;;;;;5090293;28;20204;-79
2022/11/21 03:27:16;;;;;;;6.80;2.60;;;-11.50;99.90;;;;;;5091172;28;20568;-78
2022/11/21 03:29:42;;;;;;;5.93;2.27;;;-12.10;99.90;;;;;;5087429;28;20180;-81
2022/11/21 03:32:08;;;;;;;12.10;4.07;;;-13.20;99.90;;;;;;5094636;28;20198;-80
2022/11/21 03:34:35;;;;;;;5.73;3.23;;;-11.80;99.90;;;;;;5095450;28;20429;-79
2022/11/21 03:37:01;;;;;;;5.77;2.90;;;-11.30;99.90;;;;;;5095161;28;20192;-77
2022/11/21 03:39:28;;;;;;;6.00;2.97;;;-11.40;99.90;;;;;;5095024;28;20426;-79
2022/11/21 03:41:53;;;;;;;9.67;3.70;;;-10.80;99.90;;;;;;5094966;28;21031;-79
2022/11/21 03:44:19;;;;;;;7.70;3.63;;;-11.30;99.90;;;;;;5088528;28;20437;-78
2022/11/21 03:46:46;;;;;;;9.57;3.43;;;-12.10;99.90;;;;;;5084351;28;20501;-78
2022/11/21 03:49:13;;;;;;;5.60;3.50;;;-10.80;99.90;;;;;;5083264;28;20207;-77
2022/11/21 03:51:39;;;;;;;8.60;2.93;;;-10.90;99.90;;;;;;5087997;28;20448;-78
2022/11/21 03:54:05;;;;;;;7.60;2.87;;;-12.20;99.90;;;;;;5082214;28;20437;-78
2022/11/21 03:56:31;;;;;;;9.53;2.90;;;-12.80;99.90;;;;;;5094907;28;20427;-76
2022/11/21 03:58:57;;;;;;;13.33;3.47;;;-12.90;99.90;;;;;;5094679;28;20423;-78
2022/11/21 04:01:24;;;;;;;11.13;3.10;;;-11.60;99.90;;;;;;5084265;28;20222;-77
2022/11/21 04:03:50;;;;;;;6.87;3.80;;;-11.80;99.90;;;;;;5042951;28;1165422;-77
2022/11/21 04:06:19;;;;;;;13.20;3.33;;;-11.80;99.90;;;;;;5088374;28;20188;-75
2022/11/21 04:08:46;;;;;;;5.53;3.00;;;-12.30;99.90;;;;;;5087297;28;20462;-79
2022/11/21 04:11:11;;;;;;;7.03;3.63;;;-11.50;99.90;;;;;;5088041;28;20625;-80
2022/11/21 04:13:37;;;;;;;8.57;3.23;;;-11.30;99.90;;;;;;5095518;28;20879;-76
2022/11/21 04:16:03;;;;;;;6.17;3.30;;;-12.40;99.90;;;;;;5092324;28;20215;-78
2022/11/21 04:18:29;;;;;;;4.80;2.70;;;-12.10;99.90;;;;;;5095608;28;20499;-77
2022/11/21 04:21:06;;;;;;;3.53;2.77;;;-12.10;99.90;;;;;;5078233;28;20437;-75
2022/11/21 04:23:32;;;;;;;12.60;3.47;;;-12.50;99.90;;;;;;5088230;28;20212;-78
2022/11/21 04:25:59;;;;;;;14.07;4.73;;;-11.50;99.90;;;;;;5092993;28;20730;-77
2022/11/21 04:28:24;;;;;;;5.67;3.57;;;-10.70;99.90;;;;;;5095147;28;20474;-79
2022/11/21 04:30:50;;;;;;;7.90;3.33;;;-10.90;99.90;;;;;;5092293;28;20451;-76
2022/11/21 04:33:17;;;;;;;5.80;2.70;;;-11.00;99.90;;;;;;5092214;28;20187;-78
2022/11/21 04:35:44;;;;;;;5.40;2.33;;;-11.20;99.90;;;;;;5094991;28;20185;-78
2022/11/21 04:38:11;;;;;;;9.77;3.57;;;-12.50;99.90;;;;;;5082549;28;20443;-74
2022/11/21 04:40:36;;;;;;;8.23;3.13;;;-11.90;99.90;;;;;;5090154;28;20540;-76
2022/11/21 04:43:03;;;;;;;7.07;2.83;;;-11.30;99.90;;;;;;5094987;28;20551;-76
2022/11/21 04:45:28;;;;;;;7.80;2.57;;;-10.90;99.90;;;;;;5089734;28;20529;-74
2022/11/21 04:47:54;;;;;;;6.90;2.47;;;-11.00;99.90;;;;;;5089518;28;20505;-77
2022/11/21 04:50:21;;;;;;;4.10;2.30;;;-11.70;99.90;;;;;;5087411;28;20186;-78
2022/11/21 04:52:54;;;;;;;6.33;2.47;;;-12.10;99.90;;;;;;5087829;28;20615;-76
2022/11/21 04:55:22;;;;;;;7.83;3.30;;;-11.80;99.90;;;;;;5087962;28;20464;-80
2022/11/21 04:57:48;;;;;;;10.97;2.43;;;-12.20;99.90;;;;;;5077643;28;20421;-80
2022/11/21 05:00:15;;;;;;;8.73;2.60;;;-12.70;99.90;;;;;;5094244;28;20464;-81
2022/11/21 05:02:41;;;;;;;5.37;2.03;;;-11.30;99.90;;;;;;5091330;28;21005;-79
2022/11/21 05:05:07;;;;;;;7.80;2.93;;;-12.70;99.90;;;;;;5099019;28;20796;-80
2022/11/21 05:07:33;;;;;;;7.03;2.57;;;-13.90;99.90;;;;;;5093668;28;20695;-80
2022/11/21 05:09:59;;;;;;;10.93;2.87;;;-13.00;99.90;;;;;;5094887;28;20431;-79
2022/11/21 05:15:09;;;;;;;5.90;2.57;;;-12.70;99.90;;;;;;5090811;28;20211;-79
2022/11/21 05:17:35;;;;;;;5.67;2.50;;;-11.90;99.90;;;;;;5093153;28;20424;-79
2022/11/21 05:20:01;;;;;;;9.67;3.37;;;-12.00;99.90;;;;;;5094233;28;20428;-76
2022/11/21 05:22:27;;;;;;;7.87;3.10;;;-12.60;99.90;;;;;;5098640;28;20193;-79
2022/11/21 05:24:52;;;;;;;9.20;3.13;;;-13.30;99.90;;;;;;5098113;28;20266;-80
2022/11/21 05:27:18;;;;;;;9.57;2.30;;;-12.80;99.90;;;;;;5098452;28;20183;-80
2022/11/21 05:29:44;;;;;;;11.83;2.37;;;-12.60;99.90;;;;;;5097657;28;20180;-79
2022/11/21 05:32:10;;;;;;;12.90;2.80;;;-12.00;99.90;;;;;;5098108;28;20187;-78
2022/11/21 05:34:35;;;;;;;4.80;2.00;;;-11.80;99.90;;;;;;5090890;28;20188;-78
2022/11/21 05:37:01;;;;;;;4.20;2.23;;;-13.00;99.90;;;;;;5085913;28;20270;-76
2022/11/21 05:39:27;;;;;;;9.10;1.97;;;-13.40;99.90;;;;;;5084527;28;20184;-80
2022/11/21 05:41:53;;;;;;;3.80;2.00;;;-12.80;99.90;;;;;;5091593;28;20230;-78
2022/11/21 05:44:19;;;;;;;8.23;2.80;;;-13.40;99.90;;;;;;5096297;28;20188;-77
2022/11/21 05:46:45;;;;;;;4.20;2.13;;;-13.60;99.90;;;;;;5098088;28;20179;-78
2022/11/21 05:49:11;;;;;;;3.10;1.80;;;-13.80;99.90;;;;;;5096700;28;20175;-80
2022/11/21 05:51:37;;;;;;;7.10;2.87;;;-13.60;99.90;;;;;;5097134;28;20423;-78
2022/11/21 05:54:03;;;;;;;7.33;2.50;;;-12.70;99.90;;;;;;5087840;28;20438;-75
2022/11/21 05:56:29;;;;;;;5.37;2.00;;;-13.00;99.90;;;;;;5090957;28;20440;-79
2022/11/21 05:58:56;;;;;;;8.73;3.40;;;-13.10;99.90;;;;;;5090282;28;20178;-79
2022/11/21 06:04:07;;;;;;;7.20;1.97;;;-14.10;99.90;;;;;;5093205;28;20441;-77
2022/11/21 06:06:33;;;;;;;6.63;2.30;;;-13.30;99.90;;;;;;5091275;28;20422;-78
2022/11/21 06:08:59;;;;;;;9.97;2.63;;;-12.50;99.90;;;;;;5095671;28;20480;-72
2022/11/21 06:11:24;;;;;;;6.10;2.03;;;-11.60;99.90;;;;;;5091753;28;20206;-78
2022/11/21 06:13:51;;;;;;;5.43;2.40;;;-12.40;99.90;;;;;;5096487;28;20274;-74
2022/11/21 06:16:18;;;;;;;9.47;2.80;;;-12.50;99.90;;;;;;5089592;28;20176;-73
2022/11/21 06:18:47;;;;;;;7.00;2.27;;;-13.90;99.90;;;;;;5097558;28;20427;-71
2022/11/21 06:21:17;;;;;;;4.63;2.57;;;-12.90;99.90;;;;;;5088481;28;20473;-75
2022/11/21 06:23:43;;;;;;;3.50;2.03;;;-12.40;99.90;;;;;;5091983;28;20522;-80
2022/11/21 06:26:12;;;;;;;4.63;2.17;;;-10.80;99.90;;;;;;5096677;28;20700;-81
2022/11/21 06:28:39;;;;;;;7.30;3.90;;;-13.80;99.90;;;;;;5096669;28;20498;-76
2022/11/21 06:31:07;;;;;;;8.30;2.90;;;-12.40;99.90;;;;;;5085266;28;20423;-81
2022/11/21 06:33:35;;;;;;;5.23;2.47;;;-12.30;99.90;;;;;;5086991;28;20426;-81
2022/11/21 06:36:23;;;;;;;7.00;3.13;;;-12.40;99.90;;;;;;5094076;28;20423;-78
2022/11/21 06:38:48;;;;;;;5.90;2.37;;;-13.30;99.90;;;;;;5093289;28;20422;-70
2022/11/21 06:41:16;;;;;;;4.50;2.30;;;-13.20;99.90;;;;;;5079766;28;20424;-80
2022/11/21 06:43:43;;;;;;;6.93;2.30;;;-13.60;99.90;;;;;;5095556;28;20521;-74
2022/11/21 06:46:09;;;;;;;3.67;2.10;;;-13.70;99.90;;;;;;5091697;28;20479;-73
2022/11/21 06:48:36;;;;;;;3.63;2.63;;;-14.00;99.90;;;;;;5096728;28;20896;-80
2022/11/21 06:51:20;;;;;;;6.00;1.93;;;-12.90;99.90;;;;;;5090217;28;20429;-79
2022/11/21 06:53:54;;;;;;;5.90;2.43;;;-12.90;99.90;;;;;;5085849;28;20547;-77
2022/11/21 06:56:24;;;;;;;4.77;2.40;;;-13.20;99.90;;;;;;5094853;28;20430;-74
2022/11/21 06:58:51;;;;;;;6.23;2.50;;;-13.00;99.90;;;;;;5091121;28;20722;-73
2022/11/21 07:01:17;;;;;;;8.57;2.83;;;-13.20;99.90;;;;;;5088650;28;20427;-72
2022/11/21 07:03:43;;;;;;;3.50;2.50;;;-12.70;99.90;;;;;;5090877;28;20794;-71
2022/11/21 07:06:09;;;;;;;7.73;2.90;;;-12.80;99.90;;;;;;5095419;28;20431;-70
2022/11/21 07:08:35;;;;;;;3.93;2.77;;;-12.20;99.90;;;;;;5096218;28;20178;-71
2022/11/21 07:11:04;;;;;;;3.13;2.10;;;-12.60;99.90;;;;;;5096164;28;20181;-73
2022/11/21 07:13:31;;;;;;;6.97;2.70;;;-12.10;99.90;;;;;;5096676;28;20532;-71
2022/11/21 07:16:05;;;;;;;10.93;4.03;;;-11.80;99.90;;;;;;5095795;28;20423;-72
2022/11/21 07:18:32;;;;;;;6.63;3.20;;;-12.30;99.90;;;;;;5088663;28;20440;-72
2022/11/21 07:20:59;;;;;;;7.53;2.70;;;-12.20;99.90;;;;;;5087833;28;20441;-81
2022/11/21 07:23:25;;;;;;;9.97;3.37;;;-12.10;99.90;;;;;;5082830;28;20462;-82
2022/11/21 07:25:51;;;;;;;7.83;3.10;;;-11.30;99.90;;;;;;5082970;28;20437;-73
2022/11/21 07:28:17;;;;;;;7.03;3.80;;;-10.60;99.90;;;;;;5095159;28;20236;-75
2022/11/21 07:30:43;;;;;;;12.00;3.83;;;-10.60;99.90;;;;;;5091553;28;20210;-78
2022/11/21 07:33:09;;;;;;;16.93;3.77;;;-11.00;99.90;;;;;;5096068;28;20197;-79
2022/11/21 07:35:35;;;;;;;10.50;4.43;;;-11.10;99.90;;;;;;5085548;28;20179;-76
2022/11/21 07:38:02;;;;;;;10.93;4.60;;;-10.40;99.90;;;;;;5091235;28;20275;-81
2022/11/21 07:40:28;;;;;;;17.70;5.53;;;-9.90;99.90;;;;;;5091134;28;20473;-72
2022/11/21 07:43:01;;;;;;;10.53;6.30;;;-9.80;99.90;;;;;;5086471;28;20470;-71
2022/11/21 07:45:27;;;;;;;14.47;5.50;;;-9.80;99.90;;;;;;5090081;28;20541;-73
2022/11/21 07:47:59;;;;;;;16.40;5.87;;;-9.70;99.90;;;;;;5095229;28;20909;-70
2022/11/21 07:50:26;;;;;;;13.17;5.47;;;-9.30;99.90;;;;;;5096024;28;21533;-71
2022/11/21 07:52:56;;;;;;;12.30;5.27;;;-9.30;99.90;;;;;;5095057;28;20501;-72
2022/11/21 07:55:22;;;;;;;13.73;5.63;;;-7.70;99.90;;;;;;5089589;28;20495;-78
2022/11/21 07:58:03;;;;;;;11.43;5.07;;;-9.30;99.90;;;;;;5095288;28;20423;-80
2022/11/21 08:00:30;;;;;;;11.90;5.00;;;-9.30;99.90;;;;;;5091896;28;20262;-80
2022/11/21 08:02:56;;;;;;;12.63;5.93;;;-9.80;99.90;;;;;;5095614;28;20463;-78
2022/11/21 08:05:24;;;;;;;11.67;3.80;;;-9.90;99.90;;;;;;5094772;28;20423;-81
2022/11/21 08:07:50;;;;;;;14.50;4.67;;;-10.10;99.90;;;;;;5088381;28;20171;-81
2022/11/21 08:10:16;;;;;;;23.00;6.97;;;-11.20;99.90;;;;;;5087321;28;20436;-75
2022/11/21 08:12:43;;;;;;;11.00;4.60;;;-12.20;99.90;;;;;;5081786;28;20192;-71
2022/11/21 08:15:09;;;;;;;11.23;4.40;;;-11.60;99.90;;;;;;5095317;28;20510;-78
2022/11/21 08:17:35;;;;;;;10.53;3.97;;;-12.30;99.90;;;;;;5092303;28;20426;-76
2022/11/21 08:20:01;;;;;;;5.77;2.77;;;-13.40;99.90;;;;;;5088975;28;20454;-77
2022/11/21 08:22:27;;;;;;;17.07;4.67;;;-13.90;99.90;;;;;;5083191;28;20618;-74
2022/11/21 08:24:53;;;;;;;15.53;3.97;;;-13.90;99.90;;;;;;5095312;28;20577;-76
2022/11/21 08:27:20;;;;;;;8.83;3.20;;;-14.10;99.90;;;;;;5083717;28;20419;-74
2022/11/21 08:29:46;;;;;;;6.40;4.20;;;-14.70;99.90;;;;;;5086640;28;20582;-73
2022/11/21 08:32:12;;;;;;;15.60;4.53;;;-13.90;99.90;;;;;;5076560;28;20456;-76
2022/11/21 08:34:38;;;;;;;10.83;4.90;;;-14.10;99.90;;;;;;5094282;28;20421;-79
2022/11/21 08:37:04;;;;;;;11.00;4.80;;;-14.20;99.90;;;;;;5089873;28;20438;-80
2022/11/21 08:39:31;;;;;;;12.67;3.93;;;-14.80;99.90;;;;;;5100900;28;20197;-74
2022/11/21 08:42:03;;;;;;;10.30;5.40;;;-15.10;99.90;;;;;;5101296;28;20206;-82
2022/11/21 08:44:33;;;;;;;8.87;3.67;;;-13.50;99.90;;;;;;5094747;28;20479;-72
2022/11/21 08:46:59;;;;;;;8.87;3.47;;;-15.20;99.90;;;;;;5089294;28;20435;-73
2022/11/21 08:49:26;;;;;;;16.57;4.03;;;-12.40;99.90;;;;;;5100281;28;20494;-72
2022/11/21 08:51:52;;;;;;;12.80;3.43;;;-14.00;99.90;;;;;;5096441;28;20433;-73
2022/11/21 08:54:19;;;;;;;9.07;3.63;;;-13.80;99.90;;;;;;5098028;28;20470;-78
2022/11/21 08:56:45;;;;;;;7.63;4.53;;;-13.40;99.90;;;;;;5104932;28;20468;-74
2022/11/21 08:59:11;;;;;;;8.07;3.33;;;-13.70;99.90;;;;;;5102325;28;20701;-78
2022/11/21 09:01:37;;;;;;;8.93;3.63;;;-11.20;99.90;;;;;;5102200;28;20182;-80
2022/11/21 09:04:04;;;;;;;10.93;5.23;;;-13.60;99.90;;;;;;5102235;28;20200;-72
2022/11/21 09:06:31;;;;;;;5.87;3.60;;;-14.60;99.90;;;;;;5097015;28;20429;-82
2022/11/21 09:08:57;;;;;;;11.77;4.20;;;-15.80;99.90;;;;;;5102894;28;20426;-73
2022/11/21 09:11:24;;;;;;;10.43;4.13;;;-15.00;99.90;;;;;;5088169;28;20472;-71
2022/11/21 09:19:20;;;;;;;9.43;3.50;;;-14.00;99.90;;;;;;5087354;28;20432;-75
2022/11/21 09:21:48;;;;;;;6.87;3.60;;;-15.30;99.90;;;;;;5098818;28;20493;-74
2022/11/21 09:24:14;;;;;;;15.33;4.07;;;-14.80;99.90;;;;;;5094724;28;20431;-73
2022/11/21 09:26:40;;;;;;;8.30;3.07;;;-15.70;99.90;;;;;;5091877;28;20444;-73
2022/11/21 09:29:06;;;;;;;6.80;2.83;;;-14.50;99.90;;;;;;5086145;28;20205;-77
2022/11/21 09:31:32;;;;;;;7.37;2.83;;;-15.30;99.90;;;;;;5095190;28;20190;-73
2022/11/21 09:33:57;;;;;;;8.70;3.60;;;-15.70;99.90;;;;;;5088579;28;20182;-71
2022/11/21 09:36:23;;;;;;;5.50;3.23;;;-16.10;99.90;;;;;;5098575;28;20208;-70
2022/11/21 09:38:51;;;;;;;6.70;4.10;;;-15.70;99.90;;;;;;5098236;28;20182;-72
2022/11/21 09:41:51;;;;;;;4.70;3.43;;;-14.00;99.90;;;;;;5091661;28;20496;-71
2022/11/21 09:44:44;;;;;;;11.97;3.73;;;-13.70;99.90;;;;;;5085434;28;20521;-71
2022/11/21 09:47:31;;;;;;;6.53;3.63;;;-14.70;99.90;;;;;;5089578;28;20431;-71
2022/11/21 09:49:57;;;;;;;7.07;3.47;;;-14.70;99.90;;;;;;5093715;28;20501;-70
2022/11/21 09:52:29;;;;;;;12.90;4.17;;;-16.00;99.90;;;;;;5097925;28;20529;-72
2022/11/21 09:55:00;;;;;;;8.40;4.20;;;-14.50;99.90;;;;;;5093008;28;20584;-73
2022/11/21 09:57:26;;;;;;;7.70;4.47;;;-14.70;99.90;;;;;;5097432;28;20425;-72
2022/11/21 09:59:53;;;;;;;9.57;5.67;;;-14.90;99.90;;;;;;5085371;28;20766;-69
2022/11/21 10:02:22;;;;;;;12.53;6.20;;;-13.40;99.90;;;;;;5092525;28;20208;-70
2022/11/21 10:04:49;;;;;;;15.17;6.00;;;-14.10;99.90;;;;;;5097444;28;20425;-72
2022/11/21 10:07:15;;;;;;;11.33;6.57;;;-15.70;99.90;;;;;;5092853;28;20713;-72
2022/11/21 10:10:34;;;;;;;6.93;5.70;;;-14.10;99.90;;;;;;5089774;28;20204;-79
2022/11/21 10:13:19;;;;;;;11.80;6.00;;;-15.70;99.90;;;;;;5010640;28;20186;-80
2022/11/21 10:15:50;;;;;;;19.37;7.03;;;-15.90;99.90;;;;;;5079802;28;20191;-79
2022/11/21 10:18:35;;;;;;;6.37;5.47;;;-17.10;99.90;;;;;;5083601;28;20884;-75
2022/11/21 10:21:28;;;;;;;14.87;6.57;;;-17.30;99.90;;;;;;5095612;28;20213;-73
2022/11/21 10:24:00;;;;;;;10.50;5.97;;;-18.60;99.90;;;;;;5095989;28;20209;-73
2022/11/21 10:26:32;;;;;;;13.17;7.70;;;-17.30;99.90;;;;;;5091646;28;20174;-71
2022/11/21 10:29:16;;;;;;;7.27;6.43;;;-15.60;99.90;;;;;;5095090;28;20581;-73
2022/11/21 10:31:43;;;;;;;10.27;6.60;;;-16.80;99.90;;;;;;5089130;28;20183;-71
2022/11/21 10:34:23;;;;;;;7.93;6.50;;;-16.40;99.90;;;;;;5094224;28;20179;-74
2022/11/21 10:36:56;;;;;;;12.27;7.47;;;-15.60;99.90;;;;;;5093165;28;20198;-73
2022/11/21 10:39:33;;;;;;;16.17;7.37;;;-15.40;99.90;;;;;;5093413;28;20220;-75
2022/11/21 10:42:14;;;;;;;9.03;7.07;;;-16.20;99.90;;;;;;5091958;28;20590;-76
2022/11/21 10:47:31;;;;;;;12.00;7.57;;;-19.10;99.90;;;;;;5092183;28;20242;-76
2022/11/21 10:50:11;;;;;;;13.47;6.90;;;-19.30;99.90;;;;;;5090620;28;20167;-73
2022/11/21 10:52:52;;;;;;;12.27;6.73;;;-17.80;99.90;;;;;;5095599;28;20260;-75
2022/11/21 10:55:18;;;;;;;9.03;5.80;;;-18.70;99.90;;;;;;5096580;28;20221;-78
2022/11/21 10:57:45;;;;;;;16.30;6.37;;;-17.60;99.90;;;;;;5096415;28;20667;-76
2022/11/21 11:00:11;;;;;;;13.20;6.10;;;-16.40;99.90;;;;;;5082862;28;20567;-80
2022/11/21 11:02:41;;;;;;;8.97;5.40;;;-17.30;99.90;;;;;;5085688;28;20207;-78
2022/11/21 11:05:20;;;;;;;5.50;4.90;;;-15.30;99.90;;;;;;5086681;28;20173;-80
2022/11/21 11:08:09;;;;;;;9.93;5.07;;;-16.60;99.90;;;;;;5091508;28;20174;-80
2022/11/21 11:10:37;;;;;;;12.20;6.03;;;-16.30;99.90;;;;;;5086266;28;20182;-79
2022/11/21 11:16:04;;;;;;;11.17;4.93;;;-17.00;99.90;;;;;;5083232;28;20195;-80
2022/11/21 11:18:38;;;;;;;12.10;5.70;;;-16.00;99.90;;;;;;5086199;28;20183;-79
2022/11/21 11:21:09;;;;;;;10.17;5.47;;;-16.50;99.90;;;;;;5090625;28;20183;-78
2022/11/21 11:23:35;;;;;;;10.27;5.80;;;-15.10;99.90;;;;;;5087948;28;20276;-78
2022/11/21 11:26:01;;;;;;;8.33;4.13;;;-17.20;99.90;;;;;;5088858;28;20876;-78
2022/11/21 11:28:34;;;;;;;16.10;6.27;;;-18.10;99.90;;;;;;5095926;28;20180;-72
2022/11/21 11:31:00;;;;;;;11.70;5.47;;;-16.00;99.90;;;;;;5091149;28;20686;-77
2022/11/21 11:33:31;;;;;;;8.57;5.73;;;-17.80;99.90;;;;;;5093980;28;20186;-79
2022/11/21 11:36:07;;;;;;;10.40;5.07;;;-17.50;99.90;;;;;;5086520;28;20177;-79
2022/11/21 11:38:34;;;;;;;8.17;5.30;;;-18.00;99.90;;;;;;5087866;28;20187;-76
2022/11/21 11:41:09;;;;;;;14.73;5.43;;;-16.90;99.90;;;;;;5090355;28;20572;-76
2022/11/21 11:52:32;;;;;;;8.73;5.73;;;-16.70;99.90;;;;;;5096273;28;20225;-79
2022/11/21 11:55:04;;;;;;;15.77;6.00;;;-16.70;99.90;;;;;;5084560;28;20189;-80
2022/11/21 11:57:31;;;;;;;13.37;4.63;;;-16.00;99.90;;;;;;5089412;28;20176;-79
2022/11/21 12:00:24;;;;;;;8.33;5.37;;;-16.60;99.90;;;;;;5095582;28;20180;-80
2022/11/21 12:03:11;;;;;;;10.37;5.20;;;-17.00;99.90;;;;;;5088226;28;20202;-76
2022/11/21 12:05:50;;;;;;;9.33;5.07;;;-16.10;99.90;;;;;;5092724;28;20189;-79
2022/11/21 12:08:45;;;;;;;11.20;5.50;;;-15.10;99.90;;;;;;5092125;28;20249;-75
2022/11/21 12:18:11;;;;;;;12.17;4.50;;;-14.10;99.90;;;;;;5092565;28;20244;-80
2022/11/21 12:20:56;;;;;;;5.93;3.63;;;-15.40;99.90;;;;;;5069766;28;20182;-80
2022/11/21 12:23:31;;;;;;;7.60;4.07;;;-16.10;99.90;;;;;;5092519;28;20207;-78
2022/11/21 12:26:05;;;;;;;8.53;4.53;;;-13.80;99.90;;;;;;5095099;28;20255;-77
2022/11/21 12:28:51;;;;;;;15.50;4.63;;;-14.30;99.90;;;;;;5099357;28;20180;-80
2022/11/21 12:31:58;;;;;;;12.17;4.17;;;-13.20;99.90;;;;;;5084688;28;20684;-79
2022/11/21 12:34:38;;;;;;;10.70;4.13;;;-13.40;99.90;;;;;;5021575;28;20256;-78
2022/11/21 12:37:43;;;;;;;8.63;4.67;;;-13.40;99.90;;;;;;5093369;28;20203;-80
2022/11/21 12:40:42;;;;;;;9.83;4.30;;;-11.90;99.90;;;;;;5093204;28;20610;-77
2022/11/21 12:43:08;;;;;;;8.17;5.13;;;-11.50;99.90;;;;;;5093479;28;20229;-77
2022/11/21 12:45:54;;;;;;;14.00;4.40;;;-14.10;99.90;;;;;;5099316;28;20181;-78
2022/11/21 12:54:49;;;;;;;7.90;4.73;;;-14.30;99.90;;;;;;5085707;28;20333;-74
2022/11/21 12:57:19;;;;;;;11.50;4.40;;;-17.30;99.90;;;;;;5087198;28;20224;-71
2022/11/21 13:00:07;;;;;;;8.47;4.13;;;-15.40;99.90;;;;;;5085392;28;20202;-72
2022/11/21 13:03:01;;;;;;;10.83;4.90;;;-16.30;99.90;;;;;;5097289;28;20210;-76
2022/11/21 13:05:35;;;;;;;5.77;3.00;;;-16.10;99.90;;;;;;5097083;28;20603;-77
2022/11/21 13:08:13;;;;;;;10.67;4.13;;;-17.60;99.90;;;;;;5097050;28;20178;-79
2022/11/21 13:10:47;;;;;;;4.77;3.50;;;-15.90;99.90;;;;;;5090550;28;20174;-79
2022/11/21 13:13:29;;;;;;;5.00;3.23;;;-14.50;99.90;;;;;;5087720;28;20190;-78
2022/11/21 13:16:01;;;;;;;10.30;3.70;;;-16.30;99.90;;;;;;5093626;28;20596;-78
2022/11/21 13:18:43;;;;;;;8.20;3.40;;;-14.40;99.90;;;;;;5098365;28;20187;-78
2022/11/21 13:21:41;;;;;;;6.97;3.10;;;-14.20;99.90;;;;;;5090783;28;20188;-78
2022/11/21 13:24:08;;;;;;;9.40;3.43;;;-12.60;99.90;;;;;;5092871;28;20592;-76
2022/11/21 13:26:37;;;;;;;10.47;4.23;;;-12.80;99.90;;;;;;5080958;28;20178;-78